Terminal Aerodrome Forecast
Issued by NWS

Home | Current Version | Previous Version | Text Only | Print | Product List | Glossary On
Versions: 1 2 3 4 5 6 7 8 9 10 11 12 13 14 15 16 17 18 19 20 21
000
FTAK31 PAJN 020859 AAB
TAFAWG
TAF AMD
PAWG 020859Z 0209/0306 VRB03KT 6SM BR SCT001 SCT025 BKN080
      TEMPO 0209/0213 1/2SM FG OVC002
     FM021900 30006KT P6SM VCSH SCT020 OVC050=

USA.gov is the U.S. government's official web portal to all federal, state and local government web resources and services.